Terminal Aerodrome Forecast
Issued by NWS

Home | Current Version | Previous Version | Text Only | Print | Product List | Glossary On
Versions: 1 2 3 4 5 6 7 8 9 10 11 12 13 14 15 16
000
FTUS45 KFGZ 261700
TAFGCN
TAF
KGCN 261736Z 2618/2718 08010G20KT P6SM BKN220
     FM270200 VRB03KT P6SM BKN045 OVC060 PROB30 2704/2707 6SM -SHRA
     FM270700 VRB05KT 6SM -SHRA BKN020 OVC035=

USA.gov is the U.S. government's official web portal to all federal, state and local government web resources and services.